Time;durP1;ratioP1;P1;durP2;ratioP2;P2;SDS_P1;SDS_P2;PMS_P1;PMS_P2;Temp;Humidity;BMP_temperature;BMP_pressure;BME280_temperature;BME280_humidity;BME280_pressure;Samples;Min_cycle;Max_cycle;Signal;HPM_P1;HPM_P2
2023/11/19 00:00:11;;;;;;;4.20;3.33;;;9.70;99.90;;;;;;5080299;28;20485;-67
2023/11/19 00:02:40;;;;;;;3.77;3.33;;;9.80;99.90;;;;;;5079925;28;20472;-66
2023/11/19 00:05:11;;;;;;;4.60;3.30;;;9.80;99.90;;;;;;5080975;28;20495;-66
2023/11/19 00:07:40;;;;;;;6.00;3.90;;;9.90;99.90;;;;;;5083262;28;20492;-67
2023/11/19 00:10:09;;;;;;;4.87;3.60;;;9.90;99.90;;;;;;5085722;28;20750;-67
2023/11/19 00:12:37;;;;;;;4.57;3.60;;;10.00;99.90;;;;;;5086223;28;20568;-68
2023/11/19 00:15:08;;;;;;;4.03;3.63;;;10.00;99.90;;;;;;5081252;28;20812;-69
2023/11/19 00:17:36;;;;;;;5.13;4.10;;;10.10;99.90;;;;;;5079328;28;20465;-66
2023/11/19 00:20:05;;;;;;;4.43;3.87;;;10.10;99.90;;;;;;5079527;28;20486;-69
2023/11/19 00:22:33;;;;;;;4.40;4.00;;;10.20;99.90;;;;;;5084857;28;20456;-69
2023/11/19 00:25:00;;;;;;;9.53;4.70;;;10.20;99.90;;;;;;5085778;28;20461;-70
2023/11/19 00:27:28;;;;;;;6.97;3.90;;;10.20;99.90;;;;;;5077847;28;20453;-63
2023/11/19 00:29:56;;;;;;;6.30;4.97;;;10.30;99.90;;;;;;5078212;28;20485;-65
2023/11/19 00:32:24;;;;;;;5.90;5.40;;;10.30;99.90;;;;;;5079521;28;20500;-63
2023/11/19 00:34:51;;;;;;;7.30;6.60;;;10.40;99.90;;;;;;5078185;28;20464;-65
2023/11/19 00:37:19;;;;;;;5.90;5.30;;;10.50;99.90;;;;;;5077561;28;20571;-65
2023/11/19 00:39:47;;;;;;;5.73;5.23;;;10.50;99.90;;;;;;5077429;28;20579;-67
2023/11/19 00:42:14;;;;;;;7.30;6.20;;;10.50;99.90;;;;;;5079712;28;20493;-67
2023/11/19 00:44:42;;;;;;;6.77;6.17;;;10.60;99.90;;;;;;5084452;28;20453;-70
2023/11/19 00:47:09;;;;;;;7.67;6.97;;;10.60;99.90;;;;;;5077329;28;20465;-63
2023/11/19 00:49:36;;;;;;;8.13;5.47;;;10.70;99.90;;;;;;5076764;28;20841;-64
2023/11/19 00:52:04;;;;;;;7.30;6.57;;;10.70;99.90;;;;;;5077025;28;20826;-63
2023/11/19 00:54:32;;;;;;;7.23;6.53;;;10.70;99.90;;;;;;5075482;28;20469;-64
2023/11/19 00:57:01;;;;;;;8.60;7.90;;;10.70;99.90;;;;;;5073103;28;20466;-63
2023/11/19 00:59:29;;;;;;;9.10;8.20;;;10.70;99.90;;;;;;5069121;28;20520;-63
2023/11/19 01:01:56;;;;;;;7.97;7.27;;;10.70;99.90;;;;;;5058197;28;20462;-67
2023/11/19 01:04:24;;;;;;;9.57;7.93;;;10.80;99.90;;;;;;5059181;28;20516;-63
2023/11/19 01:06:52;;;;;;;8.67;7.97;;;10.80;99.90;;;;;;5057052;28;20497;-69
2023/11/19 01:09:19;;;;;;;11.47;8.87;;;10.80;99.90;;;;;;5056382;28;20498;-69
2023/11/19 01:11:48;;;;;;;9.10;8.20;;;10.80;99.90;;;;;;5056535;28;20553;-68
2023/11/19 01:14:17;;;;;;;8.03;7.33;;;10.80;99.90;;;;;;5058121;28;20553;-65
2023/11/19 01:16:44;;;;;;;8.33;7.63;;;10.80;99.90;;;;;;5055825;28;20462;-63
2023/11/19 01:19:11;;;;;;;9.90;7.90;;;10.90;99.90;;;;;;5055608;28;20490;-65
2023/11/19 01:21:39;;;;;;;7.30;6.17;;;10.90;99.90;;;;;;5055839;28;20529;-61
2023/11/19 01:24:09;;;;;;;7.90;7.10;;;10.90;99.90;;;;;;5055754;28;20466;-63
2023/11/19 01:26:36;;;;;;;7.30;6.40;;;10.90;99.90;;;;;;5056105;28;20770;-63
2023/11/19 01:29:06;;;;;;;5.80;5.13;;;10.90;99.90;;;;;;5056136;28;20458;-65
2023/11/19 01:31:34;;;;;;;5.90;5.30;;;10.90;99.90;;;;;;5056907;28;20461;-66
2023/11/19 01:34:01;;;;;;;8.63;4.90;;;10.90;99.90;;;;;;5059487;28;20465;-67
2023/11/19 01:36:30;;;;;;;4.53;4.13;;;10.80;99.90;;;;;;5058858;28;20466;-66
2023/11/19 01:38:57;;;;;;;5.07;3.57;;;10.80;99.90;;;;;;5057474;28;20489;-66
2023/11/19 01:41:24;;;;;;;5.10;4.60;;;10.80;99.90;;;;;;5060646;28;20494;-67
2023/11/19 01:43:52;;;;;;;4.17;3.77;;;10.80;99.90;;;;;;5058516;28;20883;-63
2023/11/19 01:46:20;;;;;;;5.20;4.73;;;10.90;99.90;;;;;;5057106;28;20466;-63
2023/11/19 01:48:48;;;;;;;4.50;4.10;;;11.00;99.90;;;;;;5056159;28;20553;-63
2023/11/19 01:51:17;;;;;;;7.93;4.90;;;11.10;99.90;;;;;;5056879;28;20464;-63
2023/11/19 01:53:45;;;;;;;7.63;4.93;;;11.20;99.90;;;;;;5056800;28;20501;-63
2023/11/19 01:56:15;;;;;;;6.57;5.37;;;11.30;99.90;;;;;;5057193;28;20462;-65
2023/11/19 01:58:45;;;;;;;6.30;4.70;;;11.30;99.90;;;;;;5056870;28;20453;-62
2023/11/19 02:01:12;;;;;;;5.80;4.53;;;11.30;99.90;;;;;;5056182;28;20493;-66
2023/11/19 02:03:41;;;;;;;5.37;4.87;;;11.40;99.90;;;;;;5056522;28;20817;-64
2023/11/19 02:06:10;;;;;;;5.03;4.37;;;11.40;99.90;;;;;;5056430;28;20911;-63
2023/11/19 02:08:38;;;;;;;6.87;4.40;;;11.40;99.90;;;;;;5056891;28;20462;-65
2023/11/19 02:11:06;;;;;;;5.90;4.00;;;11.50;99.90;;;;;;5056234;28;20556;-64
2023/11/19 02:13:35;;;;;;;6.20;4.10;;;11.50;99.90;;;;;;5056529;28;20527;-63
2023/11/19 02:16:03;;;;;;;7.10;4.30;;;11.50;99.90;;;;;;5056597;28;20468;-63
2023/11/19 02:18:31;;;;;;;4.80;3.83;;;11.60;99.90;;;;;;5056237;28;20458;-62
2023/11/19 02:21:00;;;;;;;9.47;4.20;;;11.60;99.90;;;;;;5056264;28;20919;-64
2023/11/19 02:23:29;;;;;;;4.87;3.83;;;11.60;99.90;;;;;;5056387;28;20497;-65
2023/11/19 02:26:08;;;;;;;8.90;4.03;;;11.60;99.90;;;;;;5056842;28;20751;-64
2023/11/19 02:28:37;;;;;;;8.67;4.10;;;11.60;99.90;;;;;;5059986;28;20505;-65
2023/11/19 02:31:09;;;;;;;5.50;4.30;;;11.60;99.90;;;;;;5059847;28;20458;-63
2023/11/19 02:33:36;;;;;;;6.30;3.67;;;11.60;99.90;;;;;;5059788;28;20778;-64
2023/11/19 02:36:04;;;;;;;7.60;4.00;;;11.60;99.90;;;;;;5060642;28;20957;-63
2023/11/19 02:38:31;;;;;;;6.90;3.57;;;11.70;99.90;;;;;;5060404;28;20553;-64
2023/11/19 02:41:02;;;;;;;5.73;3.83;;;11.70;99.90;;;;;;5060071;28;20580;-62
2023/11/19 02:43:31;;;;;;;6.57;4.03;;;11.70;99.90;;;;;;5060318;28;20875;-64
2023/11/19 02:46:00;;;;;;;7.60;3.90;;;11.80;99.90;;;;;;5059988;28;20501;-64
2023/11/19 02:48:27;;;;;;;7.00;4.10;;;11.80;99.90;;;;;;5060222;28;20871;-63
2023/11/19 02:50:54;;;;;;;8.00;4.63;;;11.80;99.90;;;;;;5059912;28;20753;-62
2023/11/19 02:53:22;;;;;;;8.27;4.40;;;11.90;99.90;;;;;;5059647;28;20516;-63
2023/11/19 02:55:50;;;;;;;7.10;4.57;;;11.90;99.90;;;;;;5060068;28;20545;-63
2023/11/19 02:58:23;;;;;;;11.33;5.23;;;11.90;99.90;;;;;;5060146;28;20466;-64
2023/11/19 03:00:56;;;;;;;8.30;5.10;;;11.90;99.90;;;;;;5059608;28;20486;-63
2023/11/19 03:03:30;;;;;;;9.40;4.90;;;11.90;99.90;;;;;;5059403;28;20774;-65
2023/11/19 03:05:57;;;;;;;8.77;4.97;;;11.90;99.90;;;;;;5059564;28;20879;-64
2023/11/19 03:08:25;;;;;;;11.87;4.77;;;11.90;99.90;;;;;;5059770;28;20556;-63
2023/11/19 03:10:52;;;;;;;9.53;5.07;;;12.00;99.90;;;;;;5059508;28;20461;-63
2023/11/19 03:13:19;;;;;;;12.20;4.60;;;11.90;99.90;;;;;;5059462;28;20437;-64
2023/11/19 03:15:47;;;;;;;12.20;4.33;;;12.00;99.90;;;;;;5059067;28;20455;-64
2023/11/19 03:18:14;;;;;;;14.10;5.17;;;12.00;99.90;;;;;;5059345;28;20750;-64
2023/11/19 03:20:43;;;;;;;11.60;4.73;;;12.00;99.90;;;;;;5058690;28;20516;-63
2023/11/19 03:23:10;;;;;;;11.60;5.10;;;12.00;99.90;;;;;;5058882;28;20459;-65
2023/11/19 03:25:37;;;;;;;14.57;5.00;;;12.00;99.90;;;;;;5058461;28;20838;-64
2023/11/19 03:28:06;;;;;;;8.43;5.30;;;12.00;99.90;;;;;;5058967;28;20458;-63
2023/11/19 03:30:33;;;;;;;14.60;5.50;;;12.00;99.90;;;;;;5059100;28;20544;-64
2023/11/19 03:33:01;;;;;;;16.27;5.20;;;12.00;99.90;;;;;;5058783;28;20545;-64
2023/11/19 03:35:28;;;;;;;11.93;4.73;;;12.00;99.90;;;;;;5058811;28;20461;-63
2023/11/19 03:37:57;;;;;;;19.37;5.30;;;12.10;99.90;;;;;;5058362;28;20469;-63
2023/11/19 03:40:25;;;;;;;16.70;6.57;;;12.00;99.90;;;;;;5059053;28;20767;-65
2023/11/19 03:42:52;;;;;;;14.47;4.70;;;12.00;99.90;;;;;;5058906;28;20592;-63
2023/11/19 03:45:19;;;;;;;21.80;5.13;;;12.10;99.90;;;;;;5058358;28;20544;-65
2023/11/19 03:47:46;;;;;;;13.17;4.77;;;12.10;99.90;;;;;;5058686;28;20558;-63
2023/11/19 03:50:15;;;;;;;11.07;5.10;;;12.10;99.90;;;;;;5058587;28;20462;-64
2023/11/19 03:52:43;;;;;;;9.47;4.97;;;12.10;99.90;;;;;;5058673;28;20549;-64
2023/11/19 03:55:12;;;;;;;11.97;4.90;;;12.00;99.90;;;;;;5058620;28;20462;-69
2023/11/19 03:57:39;;;;;;;10.93;5.23;;;12.00;99.90;;;;;;5058438;28;20490;-65
2023/11/19 04:00:10;;;;;;;10.57;4.67;;;12.10;99.90;;;;;;5058474;28;20462;-63
2023/11/19 04:02:37;;;;;;;11.10;4.63;;;12.10;99.90;;;;;;5058341;28;20564;-62
2023/11/19 04:05:05;;;;;;;14.27;4.90;;;12.10;99.90;;;;;;5058016;28;20557;-64
2023/11/19 04:07:32;;;;;;;15.43;5.17;;;12.10;99.90;;;;;;5057924;28;20610;-67
2023/11/19 04:10:00;;;;;;;19.00;7.00;;;12.10;99.90;;;;;;5058281;28;20884;-65
2023/11/19 04:12:28;;;;;;;16.33;5.53;;;12.10;99.90;;;;;;5058605;28;20769;-65
2023/11/19 04:14:56;;;;;;;24.47;5.33;;;12.10;99.90;;;;;;5058044;28;20461;-63
2023/11/19 04:17:24;;;;;;;15.47;4.43;;;12.10;99.90;;;;;;5058207;28;20462;-65
2023/11/19 04:19:51;;;;;;;11.93;5.10;;;12.10;99.90;;;;;;5058306;28;20458;-65
2023/11/19 04:22:18;;;;;;;12.30;5.20;;;12.10;99.90;;;;;;5057967;28;20494;-64
2023/11/19 04:24:45;;;;;;;18.00;4.90;;;12.10;99.90;;;;;;5058549;28;20458;-66
2023/11/19 04:27:12;;;;;;;13.70;5.30;;;12.10;99.90;;;;;;5057603;28;20465;-64
2023/11/19 04:29:41;;;;;;;12.40;5.17;;;12.10;99.90;;;;;;5057005;28;20454;-64
2023/11/19 04:32:08;;;;;;;16.70;6.07;;;12.00;99.90;;;;;;5057751;28;20478;-62
2023/11/19 04:34:37;;;;;;;13.53;4.73;;;12.10;99.90;;;;;;5057996;28;20740;-63
2023/11/19 04:37:05;;;;;;;22.80;6.63;;;12.00;99.90;;;;;;5057549;28;20905;-64
2023/11/19 04:39:32;;;;;;;13.93;4.50;;;12.00;99.90;;;;;;5057490;28;20466;-63
2023/11/19 04:41:59;;;;;;;18.57;5.27;;;11.90;99.90;;;;;;5057785;28;20494;-63
2023/11/19 04:44:26;;;;;;;14.67;4.80;;;12.00;99.90;;;;;;5058004;28;20458;-66
2023/11/19 04:46:55;;;;;;;15.00;4.97;;;12.00;99.90;;;;;;5057804;28;20938;-65
2023/11/19 04:49:22;;;;;;;17.40;5.60;;;11.90;99.90;;;;;;5056784;28;20494;-63
2023/11/19 04:51:50;;;;;;;17.23;5.70;;;11.90;99.90;;;;;;5056841;28;20460;-62
2023/11/19 04:54:18;;;;;;;20.43;5.30;;;11.90;99.90;;;;;;5057491;28;20512;-63
2023/11/19 04:56:47;;;;;;;25.27;7.50;;;11.90;99.90;;;;;;5057580;28;20931;-69
2023/11/19 04:59:14;;;;;;;19.50;4.70;;;11.90;99.90;;;;;;5057067;28;20458;-64
2023/11/19 05:01:41;;;;;;;16.73;6.27;;;11.90;99.90;;;;;;5057129;28;20494;-64
2023/11/19 05:04:10;;;;;;;16.00;5.60;;;11.90;99.90;;;;;;5057352;28;20748;-65
2023/11/19 05:06:38;;;;;;;17.17;4.90;;;11.90;99.90;;;;;;5056904;28;20547;-64
2023/11/19 05:09:07;;;;;;;16.90;5.17;;;11.90;99.90;;;;;;5057049;28;20512;-62
2023/11/19 05:11:35;;;;;;;16.93;5.40;;;11.90;99.90;;;;;;5057146;28;20891;-63
2023/11/19 05:14:04;;;;;;;20.87;5.17;;;11.90;99.90;;;;;;5057638;28;20545;-64
2023/11/19 05:16:32;;;;;;;19.23;6.00;;;11.90;99.90;;;;;;5057794;28;20794;-63
2023/11/19 05:19:00;;;;;;;17.30;5.50;;;11.90;99.90;;;;;;5056697;28;20462;-64
2023/11/19 05:21:29;;;;;;;20.27;5.80;;;11.90;99.90;;;;;;5056737;28;20593;-66
2023/11/19 05:23:56;;;;;;;18.50;5.40;;;11.90;99.90;;;;;;5057184;28;20457;-65
2023/11/19 05:26:25;;;;;;;21.07;5.47;;;11.90;99.90;;;;;;5057249;28;20500;-64
2023/11/19 05:28:52;;;;;;;19.60;5.13;;;11.90;99.90;;;;;;5057275;28;20468;-62
2023/11/19 05:31:19;;;;;;;18.03;5.00;;;11.90;99.90;;;;;;5056358;28;20454;-62
2023/11/19 05:33:46;;;;;;;15.93;5.27;;;11.90;99.90;;;;;;5070216;28;20508;-63
2023/11/19 05:36:14;;;;;;;17.57;4.80;;;11.90;99.90;;;;;;5076036;28;20457;-64
2023/11/19 05:38:44;;;;;;;14.33;5.03;;;11.80;99.90;;;;;;5075502;28;20469;-62
2023/11/19 05:41:11;;;;;;;15.33;6.43;;;11.80;99.90;;;;;;5077404;28;20480;-63
2023/11/19 05:43:40;;;;;;;16.37;6.23;;;11.80;99.90;;;;;;5076861;28;20946;-61
2023/11/19 05:46:08;;;;;;;19.23;6.30;;;11.80;99.90;;;;;;5077290;28;20468;-63
2023/11/19 05:48:36;;;;;;;23.47;5.60;;;11.80;99.90;;;;;;5076822;28;20461;-63
2023/11/19 05:51:03;;;;;;;18.93;5.90;;;11.70;99.90;;;;;;5076391;28;20475;-64
2023/11/19 05:53:30;;;;;;;17.90;6.97;;;11.70;99.90;;;;;;5076703;28;20457;-63
2023/11/19 05:56:03;;;;;;;17.10;6.60;;;11.80;99.90;;;;;;5076653;28;20453;-63
2023/11/19 05:58:32;;;;;;;16.63;6.03;;;11.70;99.90;;;;;;5077469;28;20734;-62
2023/11/19 06:01:00;;;;;;;18.17;6.00;;;11.70;99.90;;;;;;5077155;28;20515;-65
2023/11/19 06:03:28;;;;;;;21.10;5.20;;;11.70;99.90;;;;;;5080224;28;20438;-63
2023/11/19 06:05:55;;;;;;;15.73;5.10;;;11.70;99.90;;;;;;5080618;28;20882;-63
2023/11/19 06:08:22;;;;;;;22.67;6.20;;;11.70;99.90;;;;;;5081010;28;20831;-63
2023/11/19 06:10:51;;;;;;;18.73;5.17;;;11.70;99.90;;;;;;5080670;28;20506;-62
2023/11/19 06:13:19;;;;;;;21.77;6.17;;;11.70;99.90;;;;;;5080348;28;20496;-62
2023/11/19 06:15:47;;;;;;;18.07;6.27;;;11.60;99.90;;;;;;5080467;28;20547;-62
2023/11/19 06:18:14;;;;;;;17.80;6.50;;;11.60;99.90;;;;;;5080924;28;20457;-63
2023/11/19 06:20:42;;;;;;;23.10;6.30;;;11.60;99.90;;;;;;5080394;28;20461;-62
2023/11/19 06:23:09;;;;;;;17.30;4.67;;;11.60;99.90;;;;;;5080315;28;20492;-62
2023/11/19 06:25:36;;;;;;;16.30;5.27;;;11.50;99.90;;;;;;5080204;28;20458;-68
2023/11/19 06:28:04;;;;;;;20.47;6.17;;;11.50;99.90;;;;;;5080544;28;20461;-64
2023/11/19 06:30:33;;;;;;;19.77;5.63;;;11.50;99.90;;;;;;5079631;28;20461;-65
2023/11/19 06:33:00;;;;;;;16.10;5.77;;;11.50;99.90;;;;;;5079936;28;20519;-62
2023/11/19 06:35:29;;;;;;;21.77;5.43;;;11.50;99.90;;;;;;5080459;28;20456;-63
2023/11/19 06:37:56;;;;;;;14.10;5.53;;;11.40;99.90;;;;;;5080222;28;20457;-63
2023/11/19 06:40:23;;;;;;;19.70;5.40;;;11.40;99.90;;;;;;5079618;28;20484;-64
2023/11/19 06:42:52;;;;;;;24.83;6.60;;;11.40;99.90;;;;;;5080065;28;20489;-64
2023/11/19 06:45:19;;;;;;;19.80;5.73;;;11.40;99.90;;;;;;5079909;28;20830;-63
2023/11/19 06:47:48;;;;;;;19.37;5.07;;;11.40;99.90;;;;;;5079684;28;20902;-64
2023/11/19 06:50:16;;;;;;;18.70;5.00;;;11.40;99.90;;;;;;5079697;28;20511;-66
2023/11/19 06:52:43;;;;;;;26.37;5.93;;;11.40;99.90;;;;;;5080115;28;20464;-65
2023/11/19 06:55:11;;;;;;;15.13;5.53;;;11.30;99.90;;;;;;5079167;28;20925;-61
2023/11/19 06:57:38;;;;;;;18.70;5.67;;;11.30;99.90;;;;;;5079354;28;20470;-64
2023/11/19 07:00:08;;;;;;;15.30;4.97;;;11.30;99.90;;;;;;5079637;28;20504;-65
2023/11/19 07:02:35;;;;;;;16.63;6.00;;;11.30;99.90;;;;;;5079519;28;20824;-63
2023/11/19 07:05:04;;;;;;;20.23;5.27;;;11.30;99.90;;;;;;5079295;28;20527;-65
2023/11/19 07:07:32;;;;;;;21.23;6.03;;;11.30;99.90;;;;;;5079289;28;20485;-62
2023/11/19 07:09:59;;;;;;;26.73;6.10;;;11.20;99.90;;;;;;5079596;28;20754;-63
2023/11/19 07:12:27;;;;;;;20.50;7.00;;;11.20;99.90;;;;;;5078948;28;20555;-63
2023/11/19 07:14:54;;;;;;;19.77;5.80;;;11.20;99.90;;;;;;5079592;28;20450;-64
2023/11/19 07:17:24;;;;;;;24.17;5.67;;;11.10;99.90;;;;;;5079507;28;20882;-62
2023/11/19 07:19:51;;;;;;;23.30;6.07;;;11.10;99.90;;;;;;5079185;28;20465;-64
2023/11/19 07:22:20;;;;;;;19.77;5.27;;;11.10;99.90;;;;;;5079097;28;20496;-63
2023/11/19 07:24:47;;;;;;;20.67;5.27;;;11.10;99.90;;;;;;5079717;28;20461;-65
2023/11/19 07:27:15;;;;;;;19.97;6.30;;;11.00;99.90;;;;;;5078926;28;20543;-63
2023/11/19 07:29:44;;;;;;;18.17;4.97;;;11.00;99.90;;;;;;5077906;28;20527;-64
2023/11/19 07:32:13;;;;;;;20.80;5.87;;;10.90;99.90;;;;;;5078729;28;20453;-61
2023/11/19 07:34:40;;;;;;;28.23;6.57;;;10.90;99.90;;;;;;5077586;28;20776;-65
2023/11/19 07:37:08;;;;;;;26.03;6.77;;;10.90;99.90;;;;;;5078004;28;20515;-66
2023/11/19 07:39:40;;;;;;;24.90;5.20;;;10.90;99.90;;;;;;5077482;28;20473;-65
2023/11/19 07:42:09;;;;;;;16.37;5.93;;;10.90;99.90;;;;;;5077359;28;20542;-66
2023/11/19 07:44:36;;;;;;;22.10;7.40;;;10.90;99.90;;;;;;5077284;28;20898;-65
2023/11/19 07:47:04;;;;;;;20.73;6.20;;;11.00;99.90;;;;;;5076492;28;20872;-66
2023/11/19 07:49:31;;;;;;;21.00;5.33;;;11.10;99.90;;;;;;5077712;28;20461;-65
2023/11/19 07:51:59;;;;;;;18.93;5.90;;;11.00;99.90;;;;;;5077368;28;20449;-63
2023/11/19 07:54:26;;;;;;;19.73;5.47;;;11.00;99.90;;;;;;5078392;28;20753;-62
2023/11/19 07:56:55;;;;;;;25.40;6.43;;;10.90;99.90;;;;;;5078906;28;20453;-63
2023/11/19 07:59:22;;;;;;;25.20;7.03;;;11.00;99.90;;;;;;5078300;28;20461;-63
2023/11/19 08:01:49;;;;;;;25.73;6.23;;;11.00;99.90;;;;;;5077108;28;20737;-64
2023/11/19 08:04:16;;;;;;;21.33;6.27;;;11.10;99.90;;;;;;5076839;28;20878;-63
2023/11/19 08:06:43;;;;;;;23.20;7.50;;;11.10;99.90;;;;;;5076469;28;20481;-65
2023/11/19 08:09:13;;;;;;;22.33;7.80;;;11.10;99.90;;;;;;5076536;28;20548;-64
2023/11/19 08:11:41;;;;;;;25.67;5.77;;;11.10;99.90;;;;;;5076171;28;20785;-64
2023/11/19 08:14:10;;;;;;;24.37;6.80;;;11.20;99.90;;;;;;5076705;28;20453;-63
2023/11/19 08:16:37;;;;;;;22.53;5.87;;;11.20;99.90;;;;;;5076569;28;20507;-66
2023/11/19 08:19:05;;;;;;;26.07;6.90;;;11.30;99.90;;;;;;5077725;28;20826;-64
2023/11/19 08:21:32;;;;;;;23.30;7.00;;;11.30;99.90;;;;;;5077913;28;20468;-64
2023/11/19 08:23:59;;;;;;;21.93;5.37;;;11.40;99.90;;;;;;5077434;28;20912;-63
2023/11/19 08:26:26;;;;;;;24.37;6.40;;;11.50;99.90;;;;;;5077738;28;20457;-63
2023/11/19 08:28:53;;;;;;;25.63;6.40;;;11.70;99.90;;;;;;5078224;28;20815;-68
2023/11/19 08:31:22;;;;;;;19.73;6.37;;;11.80;99.90;;;;;;5077545;28;20479;-63
2023/11/19 08:33:49;;;;;;;19.43;6.20;;;11.70;99.90;;;;;;5077620;28;20463;-64
2023/11/19 08:36:17;;;;;;;22.93;6.63;;;11.70;99.90;;;;;;5078144;28;20457;-64
2023/11/19 08:38:45;;;;;;;25.57;6.40;;;11.70;99.90;;;;;;5078321;28;20762;-63
2023/11/19 08:41:12;;;;;;;22.47;6.53;;;11.70;99.90;;;;;;5077330;28;20556;-63
2023/11/19 08:43:40;;;;;;;16.90;5.13;;;11.70;99.90;;;;;;5077488;28;20493;-63
2023/11/19 08:46:11;;;;;;;23.93;5.83;;;11.70;99.90;;;;;;5077386;28;20461;-62
2023/11/19 08:48:40;;;;;;;22.27;6.27;;;11.60;99.90;;;;;;5077463;28;20464;-64
2023/11/19 08:51:07;;;;;;;16.03;5.30;;;11.60;99.90;;;;;;5077636;28;20762;-64
2023/11/19 08:53:35;;;;;;;20.90;6.63;;;11.60;99.90;;;;;;5077234;28;20461;-64
2023/11/19 08:56:02;;;;;;;19.30;6.73;;;11.70;99.90;;;;;;5077530;28;20551;-64
2023/11/19 08:58:30;;;;;;;17.80;5.97;;;11.70;99.90;;;;;;5077499;28;20461;-63
2023/11/19 09:00:57;;;;;;;28.20;7.37;;;11.70;99.90;;;;;;5074388;28;20465;-66
2023/11/19 09:03:26;;;;;;;24.57;7.10;;;11.70;99.90;;;;;;5075386;28;20499;-62
2023/11/19 09:05:54;;;;;;;24.27;5.90;;;11.90;99.90;;;;;;5075043;28;20437;-63
2023/11/19 09:08:22;;;;;;;17.60;5.90;;;12.10;99.90;;;;;;5075437;28;20564;-63
2023/11/19 09:10:49;;;;;;;19.63;6.50;;;12.10;99.90;;;;;;5075681;28;20453;-62
2023/11/19 09:13:16;;;;;;;21.10;5.30;;;12.00;99.90;;;;;;5075254;28;20460;-62
2023/11/19 09:15:43;;;;;;;21.73;6.00;;;11.90;99.90;;;;;;5075585;28;20582;-62
2023/11/19 09:18:11;;;;;;;31.33;8.20;;;12.00;99.90;;;;;;5075055;28;20555;-63
2023/11/19 09:20:38;;;;;;;22.93;6.37;;;12.10;99.90;;;;;;5076587;28;20941;-62
2023/11/19 09:23:08;;;;;;;21.27;6.60;;;12.10;99.90;;;;;;5076464;28;20579;-71
2023/11/19 09:25:36;;;;;;;26.37;6.80;;;12.10;99.90;;;;;;5076376;28;20461;-62
2023/11/19 09:28:03;;;;;;;20.00;6.20;;;12.10;99.90;;;;;;5076624;28;20465;-62
2023/11/19 09:30:33;;;;;;;18.97;6.70;;;12.10;99.90;;;;;;5075787;28;20453;-62
2023/11/19 09:33:00;;;;;;;16.70;6.00;;;12.10;99.90;;;;;;5076546;28;20918;-63
2023/11/19 09:35:28;;;;;;;17.27;5.93;;;12.00;99.90;;;;;;5076474;28;20457;-62
2023/11/19 09:37:55;;;;;;;20.00;5.50;;;12.00;99.90;;;;;;5081503;28;20461;-63
2023/11/19 09:40:24;;;;;;;18.27;6.47;;;12.00;99.90;;;;;;5080954;28;20497;-63
2023/11/19 09:42:51;;;;;;;18.63;5.93;;;12.00;99.90;;;;;;5081205;28;20775;-62
2023/11/19 09:45:21;;;;;;;21.40;7.10;;;12.00;99.90;;;;;;5080981;28;20992;-63
2023/11/19 09:47:52;;;;;;;23.27;6.43;;;12.10;99.90;;;;;;5081000;28;20461;-62
2023/11/19 09:50:21;;;;;;;26.00;6.50;;;12.20;99.90;;;;;;5081054;28;20467;-62
2023/11/19 09:52:48;;;;;;;25.47;6.90;;;12.20;99.90;;;;;;5079459;28;20790;-62
2023/11/19 09:55:16;;;;;;;15.70;6.60;;;12.20;99.90;;;;;;5079947;28;20540;-62
2023/11/19 09:57:45;;;;;;;26.63;7.50;;;12.20;99.90;;;;;;5080513;28;20536;-62
2023/11/19 10:00:15;;;;;;;21.87;6.63;;;12.40;99.90;;;;;;5079300;28;20464;-64
2023/11/19 10:02:45;;;;;;;18.53;5.37;;;12.50;99.90;;;;;;5079474;28;20484;-64
2023/11/19 10:05:14;;;;;;;25.10;6.70;;;12.40;99.90;;;;;;5079313;28;20541;-64
2023/11/19 10:07:42;;;;;;;19.53;5.70;;;12.40;99.90;;;;;;5078242;28;20572;-62
2023/11/19 10:10:13;;;;;;;19.30;6.60;;;12.30;99.90;;;;;;5079120;28;20739;-62
2023/11/19 10:12:41;;;;;;;21.70;6.10;;;12.30;99.90;;;;;;5079218;28;20460;-63
2023/11/19 10:15:20;;;;;;;18.87;6.03;;;12.20;94.90;;;;;;5078572;28;20461;-64
2023/11/19 10:17:48;;;;;;;20.30;5.90;;;12.20;1.00;;;;;;5079010;28;20467;-63
2023/11/19 10:20:16;;;;;;;25.80;6.83;;;12.20;99.90;;;;;;5079031;28;20472;-64
2023/11/19 10:22:43;;;;;;;25.37;6.70;;;12.20;1.00;;;;;;5079234;28;20525;-63
2023/11/19 10:25:23;;;;;;;27.07;6.60;;;12.30;99.90;;;;;;5079072;28;20944;-62
2023/11/19 10:27:50;;;;;;;26.10;8.13;;;12.40;99.90;;;;;;5079410;28;20507;-62
2023/11/19 10:30:22;;;;;;;19.93;6.43;;;12.40;99.90;;;;;;5079095;28;20507;-63
2023/11/19 10:33:07;;;;;;;22.07;7.17;;;12.40;92.60;;;;;;5080523;28;20477;-63
2023/11/19 10:35:35;;;;;;;20.70;7.43;;;12.30;47.00;;;;;;5079979;28;20465;-63
2023/11/19 10:38:14;;;;;;;18.90;5.97;;;12.30;43.50;;;;;;5078311;28;20614;-64
2023/11/19 10:40:44;;;;;;;17.37;6.40;;;12.40;29.20;;;;;;5077640;28;20469;-64
2023/11/19 10:43:11;;;;;;;21.07;6.10;;;12.40;2.20;;;;;;5079442;28;21024;-65
2023/11/19 10:45:40;;;;;;;27.40;6.33;;;12.40;1.00;;;;;;5079884;28;20461;-63
2023/11/19 10:48:08;;;;;;;20.27;6.30;;;12.50;1.00;;;;;;5078814;28;20457;-62
2023/11/19 10:50:36;;;;;;;27.23;5.63;;;12.50;1.00;;;;;;5079174;28;20471;-63
2023/11/19 10:53:04;;;;;;;17.67;5.63;;;12.40;1.00;;;;;;5078622;28;20450;-69
2023/11/19 10:55:32;;;;;;;22.70;7.83;;;12.40;1.00;;;;;;5078517;28;20440;-63
2023/11/19 10:58:01;;;;;;;19.23;5.23;;;12.30;1.00;;;;;;5077454;28;20544;-63
2023/11/19 11:00:32;;;;;;;22.03;6.27;;;12.30;1.00;;;;;;5078420;28;20453;-62
2023/11/19 11:03:07;;;;;;;19.97;5.80;;;12.30;1.00;;;;;;5077405;28;20942;-63
2023/11/19 11:05:34;;;;;;;25.13;6.17;;;12.40;1.00;;;;;;5077783;28;20499;-65
2023/11/19 11:08:03;;;;;;;23.03;6.40;;;12.50;1.00;;;;;;5077826;28;20504;-64
2023/11/19 11:10:35;;;;;;;17.77;5.13;;;12.60;1.00;;;;;;5078443;28;20450;-62
2023/11/19 11:13:04;;;;;;;21.37;6.60;;;12.50;1.00;;;;;;5077128;28;20455;-63
2023/11/19 11:15:32;;;;;;;15.50;5.10;;;12.50;1.00;;;;;;5077685;28;20894;-62
2023/11/19 11:18:03;;;;;;;14.77;5.90;;;12.40;1.00;;;;;;5077890;28;20453;-62
2023/11/19 11:20:33;;;;;;;19.60;5.43;;;12.40;1.00;;;;;;5077447;28;20566;-62
2023/11/19 11:23:33;;;;;;;23.23;5.97;;;12.50;1.00;;;;;;5076063;28;20489;-62
2023/11/19 11:26:16;;;;;;;17.73;5.53;;;12.50;1.00;;;;;;5068371;28;20967;-66
2023/11/19 11:28:49;;;;;;;15.27;5.60;;;12.50;1.00;;;;;;5075561;28;20453;-62
2023/11/19 11:31:30;;;;;;;16.80;6.17;;;12.50;1.00;;;;;;5076007;28;20462;-62
2023/11/19 11:34:17;;;;;;;21.73;6.40;;;12.50;1.00;;;;;;5076862;28;20764;-62
2023/11/19 11:36:54;;;;;;;16.80;5.50;;;12.60;1.00;;;;;;5076596;28;20792;-67
2023/11/19 11:39:30;;;;;;;17.87;5.30;;;12.60;1.00;;;;;;5077361;28;20453;-63
2023/11/19 11:42:43;;;;;;;23.90;6.70;;;12.50;1.00;;;;;;5076846;28;20467;-66
2023/11/19 11:45:11;;;;;;;19.67;5.27;;;12.50;1.00;;;;;;5029627;28;20569;-62
2023/11/19 11:48:11;;;;;;;17.07;6.10;;;12.50;1.00;;;;;;5078082;28;20510;-64
2023/11/19 11:50:49;;;;;;;20.57;5.47;;;12.60;1.00;;;;;;5078340;28;20456;-63
2023/11/19 11:53:24;;;;;;;15.87;5.17;;;12.60;1.00;;;;;;5076900;28;20662;-62
2023/11/19 11:55:59;;;;;;;21.93;5.83;;;12.60;1.00;;;;;;5076998;28;20467;-67
2023/11/19 11:58:39;;;;;;;17.00;6.93;;;12.70;1.00;;;;;;5077189;28;20449;-62
2023/11/19 12:01:06;;;;;;;18.90;5.60;;;12.70;1.00;;;;;;5076539;28;20457;-63
2023/11/19 12:03:34;;;;;;;15.37;5.43;;;12.80;1.00;;;;;;5076596;28;21013;-63
2023/11/19 12:06:04;;;;;;;19.13;6.23;;;12.80;1.00;;;;;;5076500;28;20485;-61
2023/11/19 12:08:31;;;;;;;16.03;5.20;;;12.90;1.00;;;;;;5076874;28;20461;-62
2023/11/19 12:10:59;;;;;;;14.37;6.50;;;13.00;1.00;;;;;;5076266;28;20499;-63
2023/11/19 12:13:48;;;;;;;20.10;7.00;;;12.90;1.00;;;;;;5076697;28;20789;-64
2023/11/19 12:16:15;;;;;;;23.17;7.20;;;12.90;1.00;;;;;;5077004;28;20904;-66
2023/11/19 12:18:43;;;;;;;11.60;4.57;;;12.90;1.00;;;;;;5076221;28;20762;-66
2023/11/19 12:21:11;;;;;;;13.97;5.27;;;12.90;1.00;;;;;;5075550;28;20461;-65
2023/11/19 12:23:48;;;;;;;18.27;5.63;;;12.80;1.00;;;;;;5075192;28;20527;-66
2023/11/19 12:26:38;;;;;;;11.70;5.10;;;12.70;1.00;;;;;;5076509;28;20457;-63
2023/11/19 12:29:06;;;;;;;18.33;6.20;;;12.50;1.00;;;;;;5075515;28;20540;-67
2023/11/19 12:31:35;;;;;;;18.60;5.00;;;12.50;1.00;;;;;;5077465;28;20468;-63
2023/11/19 12:34:11;;;;;;;19.13;6.90;;;12.50;1.00;;;;;;5077702;28;20457;-64
2023/11/19 12:36:41;;;;;;;19.07;6.40;;;12.60;1.00;;;;;;5075544;28;20468;-61
2023/11/19 12:39:09;;;;;;;11.90;4.20;;;12.60;1.00;;;;;;5074500;28;20464;-62
2023/11/19 12:41:51;;;;;;;20.17;6.07;;;12.50;1.00;;;;;;5074585;28;20559;-62
2023/11/19 12:44:18;;;;;;;13.60;4.87;;;12.60;1.00;;;;;;5075155;28;20937;-64
2023/11/19 12:46:45;;;;;;;20.33;5.80;;;12.60;1.00;;;;;;5075141;28;20913;-62
2023/11/19 12:49:13;;;;;;;17.27;5.00;;;12.70;1.00;;;;;;5075483;28;20457;-62